Aurora, Utah
Current Conditions -  °F | °C
As of 10:55 AM on Friday 24 Oct 2014 (Local Time) from KDTA Reporting Station
Clear Clear  
Wind Chill: 67°   Ceiling: Unl
Heat Index: 67°   Visibility: 10mi
Dew Point: 32°   Wind: 15mph
Humidity: 27%   Direction: 190°S
Pressure: 30.22"   Gusts: 21mph
Location:  38.92°N, 111.93°W
Report Text: KDTA 241655Z AUTO 19013G18KT 10SM CLR 20/00 A3022 RMK AO1 T01961001
Loading
Personal Weather Stations






























Interactive Weather Map
Tropical Storm Tracking
New forecast layout! Learn more

10-Day Weather Forecast

Advertisements
Track Severe Weather on mobile